Time;durP1;ratioP1;P1;durP2;ratioP2;P2;SDS_P1;SDS_P2;PMS_P1;PMS_P2;Temp;Humidity;BMP_temperature;BMP_pressure;BME280_temperature;BME280_humidity;BME280_pressure;Samples;Min_cycle;Max_cycle;Signal;HPM_P1;HPM_P2
2023/05/20 05:51:11;;;;;;;5.10;2.80;;;;;;;;;;10549070;28;20489;-82
2023/05/20 05:56:12;;;;;;;4.10;2.75;;;;;;;;;;10549277;28;20028;-83
2023/05/20 06:01:13;;;;;;;6.10;3.10;;;;;;;;;;10551446;28;20108;-84
2023/05/20 06:06:14;;;;;;;7.80;3.20;;;;;;;;;;10554820;28;20017;-85
2023/05/20 06:11:15;;;;;;;;;;;;;;;;;;10553692;28;20056;-84
2023/05/20 06:16:16;;;;;;;3.80;2.55;;;;;;;;;;10536794;28;19947;-85
2023/05/20 06:21:17;;;;;;;4.47;2.75;;;;;;;;;;10553257;28;20052;-85
2023/05/20 06:26:18;;;;;;;5.20;3.13;;;;;;;;;;10532512;28;20028;-85
2023/05/20 06:31:19;;;;;;;4.93;3.42;;;;;;;;;;10538415;28;20012;-83
2023/05/20 06:36:20;;;;;;;6.15;3.17;;;;;;;;;;10544673;28;20035;-83
2023/05/20 06:41:21;;;;;;;3.92;3.10;;;;;;;;;;10533831;28;20090;-84
2023/05/20 06:46:22;;;;;;;4.57;2.95;;;;;;;;;;10552686;28;20025;-83
2023/05/20 06:51:23;;;;;;;3.83;3.17;;;;;;;;;;10568886;28;20025;-84
2023/05/20 06:56:24;;;;;;;5.28;3.08;;;;;;;;;;10532123;28;20028;-84
2023/05/20 07:01:25;;;;;;;3.20;2.17;;;;;;;;;;10510398;28;20044;-83
2023/05/20 07:06:26;;;;;;;4.90;3.42;;;;;;;;;;10504630;28;20032;-80
2023/05/20 07:11:27;;;;;;;8.30;3.88;;;;;;;;;;10506552;28;20510;-81
2023/05/20 07:16:28;;;;;;;3.30;2.67;;;;;;;;;;10503623;28;20149;-83
2023/05/20 07:21:30;;;;;;;4.43;3.42;;;;;;;;;;10521254;28;20024;-83
2023/05/20 07:26:35;;;;;;;6.82;3.92;;;;;;;;;;10503637;28;20032;-82
2023/05/20 07:31:36;;;;;;;7.53;3.17;;;;;;;;;;10503233;28;20048;-82
2023/05/20 07:36:37;;;;;;;5.10;2.95;;;;;;;;;;10532211;28;20025;-82
2023/05/20 07:41:38;;;;;;;5.65;3.97;;;;;;;;;;10516261;28;20017;-82
2023/05/20 07:46:40;;;;;;;6.45;3.45;;;;;;;;;;10522411;28;20090;-82
2023/05/20 07:51:41;;;;;;;5.47;3.58;;;;;;;;;;10545530;28;20020;-81
2023/05/20 07:56:42;;;;;;;10.50;4.90;;;;;;;;;;10528341;28;20064;-82
2023/05/20 08:01:43;;;;;;;7.00;5.18;;;;;;;;;;10536307;28;20016;-83
2023/05/20 08:06:45;;;;;;;6.40;5.25;;;;;;;;;;10523274;28;20403;-82
2023/05/20 08:11:46;;;;;;;5.78;4.80;;;;;;;;;;10504606;28;20031;-84
2023/05/20 08:16:47;;;;;;;8.20;4.75;;;;;;;;;;10522316;28;20059;-82
2023/05/20 08:21:48;;;;;;;6.05;4.78;;;;;;;;;;10503910;28;20024;-84
2023/05/20 08:26:49;;;;;;;5.57;4.57;;;;;;;;;;10502213;28;20048;-83
2023/05/20 08:31:51;;;;;;;7.55;5.05;;;;;;;;;;10518568;28;20028;-82
2023/05/20 08:36:52;;;;;;;5.72;4.85;;;;;;;;;;10500597;28;20025;-83
2023/05/20 08:41:53;;;;;;;9.48;4.65;;;;;;;;;;10500171;28;20168;-82
2023/05/20 08:46:54;;;;;;;7.97;5.50;;;;;;;;;;10518806;28;20089;-83
2023/05/20 08:51:55;;;;;;;7.38;5.50;;;;;;;;;;10500952;28;20037;-82
2023/05/20 08:56:59;;;;;;;9.27;5.65;;;;;;;;;;10503883;28;20096;-81
2023/05/20 09:02:03;;;;;;;8.20;5.38;;;;;;;;;;10504003;28;20024;-83
2023/05/20 09:07:04;;;;;;;6.82;5.30;;;;;;;;;;10502260;28;20032;-83
2023/05/20 09:12:05;;;;;;;7.47;4.30;;;;;;;;;;10500794;28;20035;-83
2023/05/20 09:17:07;;;;;;;6.13;4.72;;;;;;;;;;10499624;28;20540;-84
2023/05/20 09:22:08;;;;;;;5.07;4.03;;;;;;;;;;10517772;28;20385;-83
2023/05/20 09:27:09;;;;;;;6.82;3.97;;;;;;;;;;10518997;28;20027;-83
2023/05/20 09:32:10;;;;;;;6.22;4.35;;;;;;;;;;10499777;28;20021;-82
2023/05/20 09:37:13;;;;;;;7.45;4.22;;;;;;;;;;10518284;28;20394;-85
2023/05/20 09:42:18;;;;;;;7.32;4.82;;;;;;;;;;10516522;28;20076;-83
2023/05/20 09:47:19;;;;;;;5.00;3.75;;;;;;;;;;10495543;28;20047;-81
2023/05/20 09:52:20;;;;;;;5.20;4.05;;;;;;;;;;10500951;28;20028;-81
2023/05/20 09:57:21;;;;;;;7.88;6.63;;;;;;;;;;10494881;28;20032;-81
2023/05/20 10:02:23;;;;;;;6.20;4.55;;;;;;;;;;10495676;28;20027;-82
2023/05/20 10:07:43;;;;;;;4.70;3.55;;;;;;;;;;10496427;28;20050;-81
2023/05/20 10:12:53;;;;;;;7.47;4.43;;;;;;;;;;10508759;28;20035;-80
2023/05/20 10:17:57;;;;;;;6.10;2.90;;;;;;;;;;10500717;28;20028;-80
2023/05/20 10:22:58;;;;;;;5.53;4.30;;;;;;;;;;10496433;28;20082;-81
2023/05/20 10:28:08;;;;;;;8.10;5.97;;;;;;;;;;10492654;28;20024;-80
2023/05/20 10:33:16;;;;;;;6.22;4.75;;;;;;;;;;10492166;28;20035;-80
2023/05/20 10:38:17;;;;;;;6.43;5.00;;;;;;;;;;10502011;28;20182;-79
2023/05/20 10:43:28;;;;;;;6.35;4.68;;;;;;;;;;10500637;28;20016;-80
2023/05/20 10:48:30;;;;;;;6.65;5.10;;;;;;;;;;10501103;28;20028;-81
2023/05/20 10:53:39;;;;;;;7.47;4.43;;;;;;;;;;10499123;28;20028;-80
2023/05/20 10:58:40;;;;;;;6.60;5.53;;;;;;;;;;10515876;28;20021;-81
2023/05/20 11:03:41;;;;;;;6.05;4.68;;;;;;;;;;10497738;28;20023;-81
2023/05/20 11:08:42;;;;;;;5.78;5.03;;;;;;;;;;10503680;28;20084;-82
2023/05/20 11:13:43;;;;;;;5.80;4.53;;;;;;;;;;10504166;28;20033;-83
2023/05/20 11:18:47;;;;;;;6.80;5.40;;;;;;;;;;10502918;28;20025;-83
2023/05/20 11:23:52;;;;;;;4.93;4.35;;;;;;;;;;10501391;28;20116;-82
2023/05/20 11:28:53;;;;;;;5.20;4.43;;;;;;;;;;10518596;28;20029;-81
2023/05/20 11:33:53;;;;;;;4.95;4.00;;;;;;;;;;10520401;28;20032;-83
2023/05/20 11:38:57;;;;;;;6.05;5.07;;;;;;;;;;10502316;28;20104;-81
2023/05/20 11:43:59;;;;;;;5.18;3.55;;;;;;;;;;10506765;28;20033;-82
2023/05/20 11:49:00;;;;;;;5.05;3.60;;;;;;;;;;10500839;28;20040;-82
2023/05/20 11:54:02;;;;;;;5.22;2.88;;;;;;;;;;10506473;28;20094;-83
2023/05/20 11:59:04;;;;;;;6.32;2.97;;;;;;;;;;10512918;28;20024;-81
2023/05/20 12:04:05;;;;;;;7.10;3.67;;;;;;;;;;10449187;22;20049;-83
2023/05/20 12:09:07;;;;;;;7.63;3.72;;;;;;;;;;10420680;28;20029;-83
2023/05/20 12:14:08;;;;;;;5.25;3.95;;;;;;;;;;10453661;28;20043;-84
2023/05/20 12:19:10;;;;;;;5.10;4.50;;;;;;;;;;10463355;28;20025;-83
2023/05/20 12:24:11;;;;;;;5.28;4.18;;;;;;;;;;10449713;28;20016;-83
2023/05/20 12:29:12;;;;;;;4.38;3.42;;;;;;;;;;10451667;28;20169;-83
2023/05/20 12:34:13;;;;;;;8.07;4.40;;;;;;;;;;10456857;28;20055;-81
2023/05/20 12:39:16;;;;;;;6.93;4.32;;;;;;;;;;10458689;28;20049;-82
2023/05/20 12:44:17;;;;;;;8.70;4.45;;;;;;;;;;10458441;28;20037;-82
2023/05/20 12:49:18;;;;;;;6.43;3.65;;;;;;;;;;10460614;28;20040;-81
2023/05/20 12:54:19;;;;;;;3.47;3.10;;;;;;;;;;10460302;28;20055;-82
2023/05/20 12:59:20;;;;;;;4.70;3.60;;;;;;;;;;10458911;28;20044;-82
2023/05/20 13:04:21;;;;;;;4.15;3.20;;;;;;;;;;10459354;28;20037;-82
2023/05/20 13:09:22;;;;;;;5.57;3.63;;;;;;;;;;10459797;28;20112;-82
2023/05/20 13:14:23;;;;;;;3.95;2.92;;;;;;;;;;10459614;28;20032;-82
2023/05/20 13:19:24;;;;;;;4.10;2.55;;;;;;;;;;10461939;28;20033;-82
2023/05/20 13:24:26;;;;;;;4.72;3.60;;;;;;;;;;10460336;28;20017;-82
2023/05/20 13:29:27;;;;;;;4.68;3.40;;;;;;;;;;10458509;28;20082;-82
2023/05/20 13:34:29;;;;;;;6.38;4.97;;;;;;;;;;10458895;28;20478;-83
2023/05/20 13:39:30;;;;;;;4.38;2.60;;;;;;;;;;10475970;28;20077;-84
2023/05/20 13:44:31;;;;;;;3.83;3.22;;;;;;;;;;10457432;28;20024;-83
2023/05/20 13:49:32;;;;;;;4.13;2.78;;;;;;;;;;10456294;28;20483;-83
2023/05/20 13:54:33;;;;;;;3.38;2.88;;;;;;;;;;10457164;28;20029;-83
2023/05/20 13:59:34;;;;;;;4.47;2.55;;;;;;;;;;10456749;28;20389;-83
2023/05/20 14:04:38;;;;;;;3.45;2.70;;;;;;;;;;10457440;28;20036;-83
2023/05/20 14:09:39;;;;;;;3.95;3.28;;;;;;;;;;10458661;28;20032;-83
2023/05/20 14:14:40;;;;;;;4.15;2.90;;;;;;;;;;10463071;28;20455;-83
2023/05/20 14:19:41;;;;;;;4.50;3.30;;;;;;;;;;10462628;28;20056;-82
2023/05/20 14:24:42;;;;;;;6.97;3.63;;;;;;;;;;10484564;28;20056;-82
2023/05/20 14:29:43;;;;;;;3.92;3.45;;;;;;;;;;10463803;28;20375;-83
2023/05/20 14:34:44;;;;;;;3.70;3.30;;;;;;;;;;10463858;28;20112;-83
2023/05/20 14:39:45;;;;;;;4.88;2.83;;;;;;;;;;10462650;28;20036;-83
2023/05/20 14:44:46;;;;;;;3.97;3.40;;;;;;;;;;10464003;28;20064;-83
2023/05/20 14:49:48;;;;;;;4.57;3.47;;;;;;;;;;10463920;28;20096;-83
2023/05/20 14:54:50;;;;;;;3.63;2.60;;;;;;;;;;10482509;28;20029;-83
2023/05/20 14:59:51;;;;;;;7.28;3.15;;;;;;;;;;10463149;28;20032;-83
2023/05/20 15:04:52;;;;;;;5.22;3.40;;;;;;;;;;10461975;28;20491;-83
2023/05/20 15:09:53;;;;;;;6.10;4.03;;;;;;;;;;10480576;28;20031;-83
2023/05/20 15:14:54;;;;;;;3.20;2.70;;;;;;;;;;10463939;28;20055;-83
2023/05/20 15:19:55;;;;;;;3.20;2.90;;;;;;;;;;10461575;28;20509;-83
2023/05/20 15:24:56;;;;;;;3.75;3.35;;;;;;;;;;10462027;28;20052;-82
2023/05/20 15:29:57;;;;;;;3.78;3.25;;;;;;;;;;10462445;28;20383;-83
2023/05/20 15:34:59;;;;;;;4.78;3.25;;;;;;;;;;10468774;28;20036;-82
2023/05/20 15:40:00;;;;;;;3.08;2.53;;;;;;;;;;10468161;28;20031;-82
2023/05/20 15:45:01;;;;;;;3.60;3.10;;;;;;;;;;10468110;28;20057;-83
2023/05/20 15:50:04;;;;;;;3.40;2.72;;;;;;;;;;10465537;28;20064;-82
2023/05/20 15:55:05;;;;;;;3.25;2.65;;;;;;;;;;10446074;28;20021;-82
2023/05/20 16:00:09;;;;;;;4.47;3.72;;;;;;;;;;10450787;28;20029;-82
2023/05/20 16:05:10;;;;;;;4.53;3.83;;;;;;;;;;10471293;28;20021;-82
2023/05/20 16:10:11;;;;;;;6.40;3.70;;;;;;;;;;10455813;28;20025;-82
2023/05/20 16:15:12;;;;;;;4.80;3.67;;;;;;;;;;10460181;28;20024;-83
2023/05/20 16:20:13;;;;;;;3.47;2.83;;;;;;;;;;10458237;28;20029;-84
2023/05/20 16:25:14;;;;;;;5.28;4.03;;;;;;;;;;10461476;28;20022;-83
2023/05/20 16:30:15;;;;;;;2.50;2.30;;;;;;;;;;10462235;28;20021;-83
2023/05/20 16:35:16;;;;;;;3.63;3.05;;;;;;;;;;10461273;28;20024;-83
2023/05/20 16:40:17;;;;;;;4.10;3.25;;;;;;;;;;10461494;28;20055;-83
2023/05/20 16:45:18;;;;;;;4.18;2.78;;;;;;;;;;10478079;28;20085;-83
2023/05/20 16:50:19;;;;;;;2.92;2.58;;;;;;;;;;10460369;28;20493;-83
2023/05/20 16:55:20;;;;;;;5.53;4.57;;;;;;;;;;10459026;28;20039;-83
2023/05/20 17:00:21;;;;;;;4.55;3.90;;;;;;;;;;10459465;28;20032;-83
2023/05/20 17:05:24;;;;;;;5.50;3.72;;;;;;;;;;10460247;28;20025;-83
2023/05/20 17:10:27;;;;;;;5.35;3.85;;;;;;;;;;10459608;28;20479;-83
2023/05/20 17:15:28;;;;;;;3.97;2.80;;;;;;;;;;10461205;28;20021;-82
2023/05/20 17:20:29;;;;;;;5.00;3.38;;;;;;;;;;10462582;28;20049;-82
2023/05/20 17:25:30;;;;;;;5.63;3.60;;;;;;;;;;10458590;28;20475;-82
2023/05/20 17:30:31;;;;;;;4.60;3.42;;;;;;;;;;10459400;28;20024;-82
2023/05/20 17:35:32;;;;;;;4.53;3.78;;;;;;;;;;10457272;28;20119;-82
2023/05/20 17:40:33;;;;;;;4.43;3.35;;;;;;;;;;10458081;28;20028;-82
2023/05/20 17:45:34;;;;;;;2.83;2.38;;;;;;;;;;10457195;28;20025;-82
2023/05/20 17:50:35;;;;;;;4.00;3.22;;;;;;;;;;10456731;28;20053;-82
2023/05/20 17:55:37;;;;;;;4.03;3.47;;;;;;;;;;10455093;28;20048;-82
2023/05/20 18:00:40;;;;;;;5.55;3.80;;;;;;;;;;10477259;22;20048;-81
2023/05/20 18:05:42;;;;;;;4.05;3.03;;;;;;;;;;10447781;28;20060;-81
2023/05/20 18:10:43;;;;;;;6.47;3.95;;;;;;;;;;10463815;28;20109;-81
2023/05/20 18:15:44;;;;;;;5.68;3.40;;;;;;;;;;10445777;28;20057;-82
2023/05/20 18:20:45;;;;;;;6.50;3.85;;;;;;;;;;10460597;28;20097;-82
2023/05/20 18:25:46;;;;;;;5.95;4.40;;;;;;;;;;10475269;28;20029;-82
2023/05/20 18:30:47;;;;;;;4.93;3.78;;;;;;;;;;10461146;28;20052;-82
2023/05/20 18:35:50;;;;;;;5.88;4.38;;;;;;;;;;10458082;28;20029;-81
2023/05/20 18:40:51;;;;;;;4.90;4.32;;;;;;;;;;10450783;28;20021;-81
2023/05/20 18:45:52;;;;;;;4.70;3.50;;;;;;;;;;10468244;28;20077;-81
2023/05/20 18:50:54;;;;;;;6.75;5.18;;;;;;;;;;10447537;28;20119;-81
2023/05/20 18:55:59;;;;;;;6.70;5.97;;;;;;;;;;10469431;28;20467;-81
2023/05/20 19:01:00;;;;;;;7.05;5.95;;;;;;;;;;10457586;28;20032;-80
2023/05/20 19:06:01;;;;;;;5.45;4.57;;;;;;;;;;10456903;28;20519;-81
2023/05/20 19:11:02;;;;;;;8.02;6.53;;;;;;;;;;10473784;28;20155;-81
